ADDS METAR Data INFO
IDs: Format: Raw Decoded Include TAF

Data at: 0318 UTC 20 Jul 2018

KCSM 200253Z 18010KT 10SM CLR 34/06 A2984 RMK AO2 SLP071 T03390056 53006
KCSM 200153Z 16007KT 10SM CLR 35/06 A2983 RMK AO2 SLP069 T03500061
KCSM 200053Z 17007KT 10SM CLR 38/06 A2982 RMK AO2 SLP066 T03830061
KCSM 192353Z 19009KT 10SM CLR 42/04 A2982 RMK AO2 SLP065 T04220039 10433 20372 56011
KCSM 192253Z 19012KT 10SM CLR 43/04 A2982 RMK AO2 SLP067 T04330044
KCSM 192153Z VRB04KT 10SM CLR 42/04 A2984 RMK AO2 SLP072 T04220039
KCSM 192053Z 23012G19KT 10SM CLR 43/05 A2985 RMK AO2 SLP076 T04280050 56018
KCSM 191953Z 19011G16KT 10SM CLR 43/07 A2986 RMK AO2 SLP079 T04280067
KCSM 191853Z 23007KT 190V260 10SM CLR 41/10 A2988 RMK AO2 SLP088 T04110100
KCSM 191753Z 24006KT 10SM CLR 39/14 A2991 RMK AO2 SLP096 T03940144 10394 20222 58006
KCSM 191653Z 30009KT 10SM CLR 37/14 A2992 RMK AO2 SLP101 T03670144
KCSM 191553Z 25009KT 10SM CLR 35/14 A2992 RMK AO2 SLP100 T03500139
KCSM 191453Z 22008KT 10SM CLR 31/17 A2993 RMK AO2 SLP104 T03060172 51007
KCSM 191353Z 21008KT 10SM CLR 28/18 A2992 RMK AO2 SLP102 T02780183
KCSM 191253Z AUTO 17005KT 10SM CLR 24/21 A2992 RMK AO2 SLP102 T02390206
KCSM 191153Z AUTO 15006KT 8SM CLR 22/21 A2991 RMK AO2 SLP099 T02220206 10244 20211 50002
KCSM 191053Z AUTO 10003KT 10SM CLR 22/21 A2991 RMK AO2 SLP099 T02170206
KCSM 190953Z AUTO 05004KT 9SM CLR 22/21 A2991 RMK AO2 SLP099 T02170206
KCSM 190853Z AUTO 07005KT 10SM CLR 23/21 A2990 RMK AO2 SLP096 T02280206 55009
KCSM 190753Z AUTO 12006KT 10SM CLR 23/21 A2990 RMK AO2 SLP095 T02330211
KCSM 190653Z 08006KT 10SM CLR 24/21 A2992 RMK AO2 SLP102 T02440211
KCSM 190553Z 07006KT 10SM CLR 25/21 A2993 RMK AO2 SLP108 T02500206 10344 20250 403560239 51008
KCSM 190453Z 07008KT 10SM CLR 26/21 A2993 RMK AO2 SLP108 T02560206
KCSM 190353Z 09012KT 10SM CLR 28/20 A2992 RMK AO2 SLP104 T02780200
KCSM 190253Z 09010KT 10SM CLR 29/18 A2990 RMK AO2 SLP098 T02940183 53006
KCSM 190153Z 09010KT 10SM CLR 31/18 A2989 RMK AO2 SLP093 T03060178
KCSM 190053Z 09009KT 10SM CLR 33/17 A2988 RMK AO2 SLP089 T03330172
KCSM 182353Z 10013KT 10SM CLR 34/18 A2989 RMK AO2 SLP091 T03440178 10356 20306 58019
KCSM 182253Z 09013KT 10SM CLR 35/19 A2991 RMK AO2 SLP098 T03500189
KCSM 182153Z 09014KT 10SM CLR 35/19 A2993 RMK AO2 SLP104 T03500194
KCSM 182053Z 06012G17KT 10SM FEW120 36/19 A2994 RMK AO2 SLP110 T03560194 56015
KCSM 181953Z 11005KT 10SM CLR 34/17 A2996 RMK AO2 SLP115 T03440167
KCSM 181853Z 16009KT 10SM CLR 33/19 A2998 RMK AO2 SLP121 T03280189
KCSM 181753Z 14007KT 10SM SCT120 31/19 A2999 RMK AO2 SLP126 T03060194 10311 20239 58000
KCSM 181653Z 12005KT 10SM BKN120 29/21 A3001 RMK AO2 SLP132 T02890206
KCSM 181553Z 15008KT 10SM CLR 28/20 A3000 RMK AO2 SLP130 T02830200